KARB/ARB METAR and TAF weather

Enter ICAO airport designator
Station Type Date Time Source
KARB METAR 2021/03/03 00:53 UTC NOAA

KARB 030053Z AUTO 21007KT 10SM CLR M01/M07 A3002 RMK AO2 SLP179 T10061072


Station Type Date Time Source
KARB Decoded METAR 2021/03/03 00:53 UTC NOAA

ANN ARBOR MUNICIPAL AIRPORT, MI, United States (KARB) 42-13N 083-45W 251M
Mar 02, 2021 - 07:53 PM EST / 2021.03.03 0053 UTC
Wind: from the SSW (210 degrees) at 8 MPH (7 KT):0
Visibility: 10 mile(s):0
Sky conditions: clear
Temperature: 30.9 F (-0.6 C)
Windchill: 23 F (-5 C):1
Dew Point: 19.0 F (-7.2 C)
Relative Humidity: 60%
Pressure (altimeter): 30.02 in. Hg (1016 hPa)
ob: KARB 030053Z AUTO 21007KT 10SM CLR M01/M07 A3002 RMK AO2 SLP179 T10061072
cycle: 1

Station Type Date Time Source
KARB TAF UTC NOAA

Error!

Example: see airport list